sensor_id;sensor_type;location;lat;lon;timestamp;P1;durP1;ratioP1;P2;durP2;ratioP2
4061;SDS011;2046;47.064;15.456;2023-04-24T00:00:23;2.30;;;2.10;;
4061;SDS011;2046;47.064;15.456;2023-04-24T00:02:50;2.40;;;2.20;;
4061;SDS011;2046;47.064;15.456;2023-04-24T00:05:17;3.00;;;2.28;;
4061;SDS011;2046;47.064;15.456;2023-04-24T00:07:44;2.25;;;2.05;;
4061;SDS011;2046;47.064;15.456;2023-04-24T00:10:11;2.17;;;1.98;;
4061;SDS011;2046;47.064;15.456;2023-04-24T00:12:39;3.28;;;2.42;;
4061;SDS011;2046;47.064;15.456;2023-04-24T00:15:06;3.45;;;2.35;;
4061;SDS011;2046;47.064;15.456;2023-04-24T00:17:33;2.83;;;2.20;;
4061;SDS011;2046;47.064;15.456;2023-04-24T00:20:00;2.70;;;2.47;;
4061;SDS011;2046;47.064;15.456;2023-04-24T00:22:29;2.53;;;2.28;;
4061;SDS011;2046;47.064;15.456;2023-04-24T00:24:57;2.72;;;2.40;;
4061;SDS011;2046;47.064;15.456;2023-04-24T00:27:23;3.25;;;2.08;;
4061;SDS011;2046;47.064;15.456;2023-04-24T00:29:50;2.22;;;2.08;;
4061;SDS011;2046;47.064;15.456;2023-04-24T00:32:17;3.03;;;2.17;;
4061;SDS011;2046;47.064;15.456;2023-04-24T00:34:44;2.33;;;2.13;;
4061;SDS011;2046;47.064;15.456;2023-04-24T00:37:11;3.10;;;2.22;;
4061;SDS011;2046;47.064;15.456;2023-04-24T00:39:37;2.30;;;2.10;;
4061;SDS011;2046;47.064;15.456;2023-04-24T00:42:04;3.63;;;2.28;;
4061;SDS011;2046;47.064;15.456;2023-04-24T00:44:32;2.35;;;2.10;;
4061;SDS011;2046;47.064;15.456;2023-04-24T00:47:00;2.25;;;2.00;;
4061;SDS011;2046;47.064;15.456;2023-04-24T00:49:27;2.63;;;2.17;;
4061;SDS011;2046;47.064;15.456;2023-04-24T00:51:53;2.40;;;2.20;;
4061;SDS011;2046;47.064;15.456;2023-04-24T00:54:20;3.28;;;2.60;;
4061;SDS011;2046;47.064;15.456;2023-04-24T00:56:47;2.20;;;1.98;;
4061;SDS011;2046;47.064;15.456;2023-04-24T00:59:15;2.80;;;2.60;;
4061;SDS011;2046;47.064;15.456;2023-04-24T01:01:42;3.35;;;2.30;;
4061;SDS011;2046;47.064;15.456;2023-04-24T01:04:09;2.50;;;2.30;;
4061;SDS011;2046;47.064;15.456;2023-04-24T01:06:40;2.75;;;2.30;;
4061;SDS011;2046;47.064;15.456;2023-04-24T01:09:09;2.30;;;2.10;;
4061;SDS011;2046;47.064;15.456;2023-04-24T01:11:37;3.15;;;2.85;;
4061;SDS011;2046;47.064;15.456;2023-04-24T01:14:04;2.60;;;2.40;;
4061;SDS011;2046;47.064;15.456;2023-04-24T01:16:30;3.40;;;2.47;;
4061;SDS011;2046;47.064;15.456;2023-04-24T01:18:57;3.72;;;2.30;;
4061;SDS011;2046;47.064;15.456;2023-04-24T01:21:24;2.80;;;2.50;;
4061;SDS011;2046;47.064;15.456;2023-04-24T01:23:54;3.33;;;2.30;;
4061;SDS011;2046;47.064;15.456;2023-04-24T01:26:21;2.50;;;2.13;;
4061;SDS011;2046;47.064;15.456;2023-04-24T01:28:48;2.92;;;2.35;;
4061;SDS011;2046;47.064;15.456;2023-04-24T01:31:15;2.33;;;2.13;;
4061;SDS011;2046;47.064;15.456;2023-04-24T01:33:42;2.83;;;2.38;;
4061;SDS011;2046;47.064;15.456;2023-04-24T01:36:09;2.97;;;2.38;;
4061;SDS011;2046;47.064;15.456;2023-04-24T01:38:36;2.30;;;2.10;;
4061;SDS011;2046;47.064;15.456;2023-04-24T01:41:03;2.50;;;2.20;;
4061;SDS011;2046;47.064;15.456;2023-04-24T01:43:30;2.75;;;2.53;;
4061;SDS011;2046;47.064;15.456;2023-04-24T01:45:57;3.45;;;2.58;;
4061;SDS011;2046;47.064;15.456;2023-04-24T01:48:24;2.85;;;2.55;;
4061;SDS011;2046;47.064;15.456;2023-04-24T01:50:51;2.28;;;2.10;;
4061;SDS011;2046;47.064;15.456;2023-04-24T01:53:17;3.33;;;2.33;;
4061;SDS011;2046;47.064;15.456;2023-04-24T01:55:44;2.42;;;2.22;;
4061;SDS011;2046;47.064;15.456;2023-04-24T01:58:11;2.45;;;2.17;;
4061;SDS011;2046;47.064;15.456;2023-04-24T02:00:37;2.95;;;2.42;;
4061;SDS011;2046;47.064;15.456;2023-04-24T02:03:04;2.65;;;2.15;;
4061;SDS011;2046;47.064;15.456;2023-04-24T02:05:31;3.10;;;2.30;;
4061;SDS011;2046;47.064;15.456;2023-04-24T02:07:57;3.58;;;2.20;;
4061;SDS011;2046;47.064;15.456;2023-04-24T02:10:24;3.03;;;2.40;;
4061;SDS011;2046;47.064;15.456;2023-04-24T02:12:51;3.78;;;2.30;;
4061;SDS011;2046;47.064;15.456;2023-04-24T02:15:18;2.75;;;1.95;;
4061;SDS011;2046;47.064;15.456;2023-04-24T02:17:44;3.78;;;2.45;;
4061;SDS011;2046;47.064;15.456;2023-04-24T02:20:11;2.67;;;2.05;;
4061;SDS011;2046;47.064;15.456;2023-04-24T02:22:38;3.00;;;2.20;;
4061;SDS011;2046;47.064;15.456;2023-04-24T02:25:04;4.00;;;2.28;;
4061;SDS011;2046;47.064;15.456;2023-04-24T02:27:31;3.28;;;2.20;;
4061;SDS011;2046;47.064;15.456;2023-04-24T02:29:58;3.42;;;2.47;;
4061;SDS011;2046;47.064;15.456;2023-04-24T02:32:24;2.28;;;2.08;;
4061;SDS011;2046;47.064;15.456;2023-04-24T02:34:52;3.75;;;2.13;;
4061;SDS011;2046;47.064;15.456;2023-04-24T02:37:19;2.42;;;1.92;;
4061;SDS011;2046;47.064;15.456;2023-04-24T02:39:46;2.20;;;2.00;;
4061;SDS011;2046;47.064;15.456;2023-04-24T02:42:12;2.78;;;2.20;;
4061;SDS011;2046;47.064;15.456;2023-04-24T02:44:39;2.33;;;1.90;;
4061;SDS011;2046;47.064;15.456;2023-04-24T02:47:07;2.17;;;1.73;;
4061;SDS011;2046;47.064;15.456;2023-04-24T02:49:34;3.30;;;2.10;;
4061;SDS011;2046;47.064;15.456;2023-04-24T02:52:01;2.70;;;1.88;;
4061;SDS011;2046;47.064;15.456;2023-04-24T02:54:28;2.78;;;2.05;;
4061;SDS011;2046;47.064;15.456;2023-04-24T02:56:54;3.20;;;2.13;;
4061;SDS011;2046;47.064;15.456;2023-04-24T02:59:21;3.33;;;1.92;;
4061;SDS011;2046;47.064;15.456;2023-04-24T03:01:48;3.05;;;2.00;;
4061;SDS011;2046;47.064;15.456;2023-04-24T03:04:14;4.10;;;2.10;;
4061;SDS011;2046;47.064;15.456;2023-04-24T03:06:42;2.42;;;1.90;;
4061;SDS011;2046;47.064;15.456;2023-04-24T03:09:09;1.85;;;1.75;;
4061;SDS011;2046;47.064;15.456;2023-04-24T03:11:35;1.90;;;1.80;;
4061;SDS011;2046;47.064;15.456;2023-04-24T03:14:02;2.10;;;2.00;;
4061;SDS011;2046;47.064;15.456;2023-04-24T03:16:29;4.43;;;1.80;;
4061;SDS011;2046;47.064;15.456;2023-04-24T03:18:56;1.80;;;1.70;;
4061;SDS011;2046;47.064;15.456;2023-04-24T03:21:22;2.10;;;2.00;;
4061;SDS011;2046;47.064;15.456;2023-04-24T03:23:49;1.55;;;1.45;;
4061;SDS011;2046;47.064;15.456;2023-04-24T03:26:16;1.90;;;1.70;;
4061;SDS011;2046;47.064;15.456;2023-04-24T03:28:42;1.90;;;1.50;;
4061;SDS011;2046;47.064;15.456;2023-04-24T03:31:09;1.40;;;1.30;;
4061;SDS011;2046;47.064;15.456;2023-04-24T03:33:36;1.80;;;1.70;;
4061;SDS011;2046;47.064;15.456;2023-04-24T03:36:03;1.80;;;1.70;;
4061;SDS011;2046;47.064;15.456;2023-04-24T03:38:31;1.95;;;1.75;;
4061;SDS011;2046;47.064;15.456;2023-04-24T03:40:58;1.60;;;1.50;;
4061;SDS011;2046;47.064;15.456;2023-04-24T03:43:24;1.83;;;1.50;;
4061;SDS011;2046;47.064;15.456;2023-04-24T03:45:53;1.23;;;1.20;;
4061;SDS011;2046;47.064;15.456;2023-04-24T03:48:20;1.60;;;1.50;;
4061;SDS011;2046;47.064;15.456;2023-04-24T03:50:47;1.80;;;1.70;;
4061;SDS011;2046;47.064;15.456;2023-04-24T03:53:13;1.80;;;1.45;;
4061;SDS011;2046;47.064;15.456;2023-04-24T03:55:40;1.50;;;1.40;;
4061;SDS011;2046;47.064;15.456;2023-04-24T03:58:07;1.50;;;1.40;;
4061;SDS011;2046;47.064;15.456;2023-04-24T04:00:34;3.55;;;1.60;;
4061;SDS011;2046;47.064;15.456;2023-04-24T04:03:01;2.28;;;1.40;;
4061;SDS011;2046;47.064;15.456;2023-04-24T04:05:27;1.80;;;1.30;;
4061;SDS011;2046;47.064;15.456;2023-04-24T04:07:54;1.48;;;1.38;;
4061;SDS011;2046;47.064;15.456;2023-04-24T04:10:21;1.45;;;1.35;;
4061;SDS011;2046;47.064;15.456;2023-04-24T04:12:48;2.40;;;1.48;;
4061;SDS011;2046;47.064;15.456;2023-04-24T04:15:15;1.77;;;1.20;;
4061;SDS011;2046;47.064;15.456;2023-04-24T04:17:41;1.30;;;1.20;;
4061;SDS011;2046;47.064;15.456;2023-04-24T04:20:08;2.05;;;1.45;;
4061;SDS011;2046;47.064;15.456;2023-04-24T04:22:36;1.58;;;1.23;;
4061;SDS011;2046;47.064;15.456;2023-04-24T04:25:04;1.42;;;1.33;;
4061;SDS011;2046;47.064;15.456;2023-04-24T04:27:31;1.45;;;1.35;;
4061;SDS011;2046;47.064;15.456;2023-04-24T04:29:59;1.58;;;1.20;;
4061;SDS011;2046;47.064;15.456;2023-04-24T04:32:31;1.35;;;1.15;;
4061;SDS011;2046;47.064;15.456;2023-04-24T04:35:00;1.55;;;1.40;;
4061;SDS011;2046;47.064;15.456;2023-04-24T04:37:29;1.50;;;1.40;;
4061;SDS011;2046;47.064;15.456;2023-04-24T04:39:56;1.50;;;1.40;;
4061;SDS011;2046;47.064;15.456;2023-04-24T04:42:24;1.20;;;1.10;;
4061;SDS011;2046;47.064;15.456;2023-04-24T04:44:51;1.23;;;1.17;;
4061;SDS011;2046;47.064;15.456;2023-04-24T04:47:18;1.30;;;1.20;;
4061;SDS011;2046;47.064;15.456;2023-04-24T04:49:45;1.27;;;1.27;;
4061;SDS011;2046;47.064;15.456;2023-04-24T04:52:13;1.20;;;1.10;;
4061;SDS011;2046;47.064;15.456;2023-04-24T04:54:39;1.83;;;1.45;;
4061;SDS011;2046;47.064;15.456;2023-04-24T04:57:06;1.27;;;1.17;;
4061;SDS011;2046;47.064;15.456;2023-04-24T04:59:33;1.33;;;1.23;;
4061;SDS011;2046;47.064;15.456;2023-04-24T05:01:59;1.40;;;1.30;;
4061;SDS011;2046;47.064;15.456;2023-04-24T05:04:26;1.88;;;1.08;;
4061;SDS011;2046;47.064;15.456;2023-04-24T05:06:53;1.50;;;1.40;;
4061;SDS011;2046;47.064;15.456;2023-04-24T05:09:20;1.20;;;1.10;;
4061;SDS011;2046;47.064;15.456;2023-04-24T05:11:47;1.10;;;1.10;;
4061;SDS011;2046;47.064;15.456;2023-04-24T05:14:13;1.20;;;1.20;;
4061;SDS011;2046;47.064;15.456;2023-04-24T05:16:40;1.27;;;1.17;;
4061;SDS011;2046;47.064;15.456;2023-04-24T05:19:07;1.38;;;1.27;;
4061;SDS011;2046;47.064;15.456;2023-04-24T05:21:34;1.05;;;1.02;;
4061;SDS011;2046;47.064;15.456;2023-04-24T05:24:01;2.17;;;1.25;;
4061;SDS011;2046;47.064;15.456;2023-04-24T05:26:27;1.33;;;1.23;;
4061;SDS011;2046;47.064;15.456;2023-04-24T05:28:54;3.25;;;1.30;;
4061;SDS011;2046;47.064;15.456;2023-04-24T05:31:21;1.33;;;1.23;;
4061;SDS011;2046;47.064;15.456;2023-04-24T05:33:47;1.45;;;1.35;;
4061;SDS011;2046;47.064;15.456;2023-04-24T05:36:14;1.65;;;1.30;;
4061;SDS011;2046;47.064;15.456;2023-04-24T05:38:41;1.20;;;1.15;;
4061;SDS011;2046;47.064;15.456;2023-04-24T05:41:08;1.95;;;1.45;;
4061;SDS011;2046;47.064;15.456;2023-04-24T05:43:34;1.70;;;1.60;;
4061;SDS011;2046;47.064;15.456;2023-04-24T05:46:01;1.40;;;1.30;;
4061;SDS011;2046;47.064;15.456;2023-04-24T05:48:28;1.40;;;1.30;;
4061;SDS011;2046;47.064;15.456;2023-04-24T05:50:55;1.48;;;1.35;;
4061;SDS011;2046;47.064;15.456;2023-04-24T05:53:21;1.35;;;1.25;;
4061;SDS011;2046;47.064;15.456;2023-04-24T05:55:48;1.48;;;1.38;;
4061;SDS011;2046;47.064;15.456;2023-04-24T05:58:15;1.70;;;1.33;;
4061;SDS011;2046;47.064;15.456;2023-04-24T06:00:42;2.13;;;1.15;;
4061;SDS011;2046;47.064;15.456;2023-04-24T06:03:10;2.40;;;1.17;;
4061;SDS011;2046;47.064;15.456;2023-04-24T06:05:38;1.40;;;1.30;;
4061;SDS011;2046;47.064;15.456;2023-04-24T06:08:04;1.63;;;1.52;;
4061;SDS011;2046;47.064;15.456;2023-04-24T06:10:31;1.60;;;1.50;;
4061;SDS011;2046;47.064;15.456;2023-04-24T06:12:58;1.67;;;1.40;;
4061;SDS011;2046;47.064;15.456;2023-04-24T06:15:30;1.83;;;1.50;;
4061;SDS011;2046;47.064;15.456;2023-04-24T06:17:57;2.15;;;1.25;;
4061;SDS011;2046;47.064;15.456;2023-04-24T06:20:24;1.67;;;1.50;;
4061;SDS011;2046;47.064;15.456;2023-04-24T06:22:51;1.40;;;1.30;;
4061;SDS011;2046;47.064;15.456;2023-04-24T06:25:18;1.50;;;1.40;;
4061;SDS011;2046;47.064;15.456;2023-04-24T06:27:45;1.20;;;1.10;;
4061;SDS011;2046;47.064;15.456;2023-04-24T06:30:12;1.60;;;1.50;;
4061;SDS011;2046;47.064;15.456;2023-04-24T06:32:39;1.33;;;1.23;;
4061;SDS011;2046;47.064;15.456;2023-04-24T06:35:06;1.23;;;1.20;;
4061;SDS011;2046;47.064;15.456;2023-04-24T06:37:34;3.05;;;1.35;;
4061;SDS011;2046;47.064;15.456;2023-04-24T06:40:01;1.30;;;1.20;;
4061;SDS011;2046;47.064;15.456;2023-04-24T06:42:27;1.30;;;1.20;;
4061;SDS011;2046;47.064;15.456;2023-04-24T06:44:54;1.23;;;1.15;;
4061;SDS011;2046;47.064;15.456;2023-04-24T06:47:21;1.42;;;1.30;;
4061;SDS011;2046;47.064;15.456;2023-04-24T06:49:47;1.08;;;1.08;;
4061;SDS011;2046;47.064;15.456;2023-04-24T06:52:14;1.42;;;1.10;;
4061;SDS011;2046;47.064;15.456;2023-04-24T06:54:41;1.65;;;1.30;;
4061;SDS011;2046;47.064;15.456;2023-04-24T06:57:08;7.95;;;1.40;;
4061;SDS011;2046;47.064;15.456;2023-04-24T06:59:35;1.63;;;1.52;;
4061;SDS011;2046;47.064;15.456;2023-04-24T07:02:01;1.77;;;1.67;;
4061;SDS011;2046;47.064;15.456;2023-04-24T07:04:29;1.30;;;1.20;;
4061;SDS011;2046;47.064;15.456;2023-04-24T07:06:56;1.27;;;1.20;;
4061;SDS011;2046;47.064;15.456;2023-04-24T07:09:24;1.85;;;1.30;;
4061;SDS011;2046;47.064;15.456;2023-04-24T07:11:52;1.58;;;1.20;;
4061;SDS011;2046;47.064;15.456;2023-04-24T07:14:19;2.30;;;1.40;;
4061;SDS011;2046;47.064;15.456;2023-04-24T07:16:46;4.97;;;2.17;;
4061;SDS011;2046;47.064;15.456;2023-04-24T07:19:12;1.33;;;1.23;;
4061;SDS011;2046;47.064;15.456;2023-04-24T07:21:40;1.30;;;1.20;;
4061;SDS011;2046;47.064;15.456;2023-04-24T07:24:07;1.00;;;0.85;;
4061;SDS011;2046;47.064;15.456;2023-04-24T07:26:37;1.45;;;1.33;;
4061;SDS011;2046;47.064;15.456;2023-04-24T07:29:05;0.90;;;0.90;;
4061;SDS011;2046;47.064;15.456;2023-04-24T07:31:31;1.52;;;1.27;;
4061;SDS011;2046;47.064;15.456;2023-04-24T07:33:58;1.17;;;0.95;;
4061;SDS011;2046;47.064;15.456;2023-04-24T07:36:25;1.52;;;0.90;;
4061;SDS011;2046;47.064;15.456;2023-04-24T07:38:52;0.90;;;0.90;;
4061;SDS011;2046;47.064;15.456;2023-04-24T07:41:19;1.02;;;1.02;;
4061;SDS011;2046;47.064;15.456;2023-04-24T07:43:47;2.65;;;1.25;;
4061;SDS011;2046;47.064;15.456;2023-04-24T07:46:14;1.85;;;1.08;;
4061;SDS011;2046;47.064;15.456;2023-04-24T07:48:41;0.85;;;0.85;;
4061;SDS011;2046;47.064;15.456;2023-04-24T07:51:08;1.10;;;1.00;;
4061;SDS011;2046;47.064;15.456;2023-04-24T07:53:37;1.00;;;0.90;;
4061;SDS011;2046;47.064;15.456;2023-04-24T07:56:04;1.10;;;0.95;;
4061;SDS011;2046;47.064;15.456;2023-04-24T07:58:30;1.75;;;1.13;;
4061;SDS011;2046;47.064;15.456;2023-04-24T08:00:57;1.50;;;1.33;;
4061;SDS011;2046;47.064;15.456;2023-04-24T08:03:24;0.88;;;0.88;;
4061;SDS011;2046;47.064;15.456;2023-04-24T08:05:51;1.33;;;1.02;;
4061;SDS011;2046;47.064;15.456;2023-04-24T08:08:20;5.00;;;1.45;;
4061;SDS011;2046;47.064;15.456;2023-04-24T08:10:48;0.70;;;0.70;;
4061;SDS011;2046;47.064;15.456;2023-04-24T08:13:14;1.13;;;1.02;;
4061;SDS011;2046;47.064;15.456;2023-04-24T08:15:41;1.30;;;1.10;;
4061;SDS011;2046;47.064;15.456;2023-04-24T08:18:08;1.33;;;1.23;;
4061;SDS011;2046;47.064;15.456;2023-04-24T08:20:34;1.45;;;1.10;;
4061;SDS011;2046;47.064;15.456;2023-04-24T08:23:02;2.40;;;1.17;;
4061;SDS011;2046;47.064;15.456;2023-04-24T08:25:29;1.00;;;1.00;;
4061;SDS011;2046;47.064;15.456;2023-04-24T08:27:56;0.90;;;0.90;;
4061;SDS011;2046;47.064;15.456;2023-04-24T08:30:22;1.25;;;0.90;;
4061;SDS011;2046;47.064;15.456;2023-04-24T08:32:49;1.40;;;1.08;;
4061;SDS011;2046;47.064;15.456;2023-04-24T08:35:16;1.05;;;0.93;;
4061;SDS011;2046;47.064;15.456;2023-04-24T08:37:42;1.90;;;1.23;;
4061;SDS011;2046;47.064;15.456;2023-04-24T08:40:12;0.85;;;0.70;;
4061;SDS011;2046;47.064;15.456;2023-04-24T08:42:44;0.90;;;0.90;;
4061;SDS011;2046;47.064;15.456;2023-04-24T08:45:11;1.55;;;1.10;;
4061;SDS011;2046;47.064;15.456;2023-04-24T08:47:38;0.98;;;0.80;;
4061;SDS011;2046;47.064;15.456;2023-04-24T08:50:06;2.85;;;0.93;;
4061;SDS011;2046;47.064;15.456;2023-04-24T08:52:34;0.90;;;0.90;;
4061;SDS011;2046;47.064;15.456;2023-04-24T08:55:00;1.23;;;1.10;;
4061;SDS011;2046;47.064;15.456;2023-04-24T08:57:28;2.00;;;1.08;;
4061;SDS011;2046;47.064;15.456;2023-04-24T08:59:55;1.92;;;1.00;;
4061;SDS011;2046;47.064;15.456;2023-04-24T09:02:22;1.75;;;0.75;;
4061;SDS011;2046;47.064;15.456;2023-04-24T09:04:49;2.42;;;0.90;;
4061;SDS011;2046;47.064;15.456;2023-04-24T09:07:17;1.13;;;1.05;;
4061;SDS011;2046;47.064;15.456;2023-04-24T09:09:44;0.85;;;0.85;;
4061;SDS011;2046;47.064;15.456;2023-04-24T09:12:11;2.60;;;1.00;;
4061;SDS011;2046;47.064;15.456;2023-04-24T09:14:38;2.30;;;0.88;;
4061;SDS011;2046;47.064;15.456;2023-04-24T09:17:11;0.57;;;0.57;;
4061;SDS011;2046;47.064;15.456;2023-04-24T09:19:38;0.70;;;0.70;;
4061;SDS011;2046;47.064;15.456;2023-04-24T09:22:06;0.93;;;0.90;;
4061;SDS011;2046;47.064;15.456;2023-04-24T09:24:33;1.80;;;0.85;;
4061;SDS011;2046;47.064;15.456;2023-04-24T09:27:01;3.58;;;1.00;;
4061;SDS011;2046;47.064;15.456;2023-04-24T09:29:28;2.63;;;0.85;;
4061;SDS011;2046;47.064;15.456;2023-04-24T09:31:55;2.03;;;0.98;;
4061;SDS011;2046;47.064;15.456;2023-04-24T09:34:23;0.80;;;0.80;;
4061;SDS011;2046;47.064;15.456;2023-04-24T09:36:50;2.08;;;0.85;;
4061;SDS011;2046;47.064;15.456;2023-04-24T09:39:17;0.60;;;0.60;;
4061;SDS011;2046;47.064;15.456;2023-04-24T09:41:50;2.22;;;0.90;;
4061;SDS011;2046;47.064;15.456;2023-04-24T09:44:21;4.00;;;1.02;;
4061;SDS011;2046;47.064;15.456;2023-04-24T09:46:54;2.78;;;0.80;;
4061;SDS011;2046;47.064;15.456;2023-04-24T09:49:23;0.82;;;0.82;;
4061;SDS011;2046;47.064;15.456;2023-04-24T09:51:50;0.88;;;0.70;;
4061;SDS011;2046;47.064;15.456;2023-04-24T09:54:18;2.22;;;0.80;;
4061;SDS011;2046;47.064;15.456;2023-04-24T09:56:48;0.98;;;0.77;;
4061;SDS011;2046;47.064;15.456;2023-04-24T09:59:16;0.73;;;0.57;;
4061;SDS011;2046;47.064;15.456;2023-04-24T10:01:43;2.78;;;1.05;;
4061;SDS011;2046;47.064;15.456;2023-04-24T10:04:24;1.27;;;0.68;;
4061;SDS011;2046;47.064;15.456;2023-04-24T10:06:52;0.95;;;0.95;;
4061;SDS011;2046;47.064;15.456;2023-04-24T10:09:20;1.90;;;0.93;;
4061;SDS011;2046;47.064;15.456;2023-04-24T10:11:49;1.25;;;0.80;;
4061;SDS011;2046;47.064;15.456;2023-04-24T10:14:16;0.85;;;0.80;;
4061;SDS011;2046;47.064;15.456;2023-04-24T10:16:43;1.38;;;1.00;;
4061;SDS011;2046;47.064;15.456;2023-04-24T10:19:13;0.82;;;0.77;;
4061;SDS011;2046;47.064;15.456;2023-04-24T10:21:41;0.80;;;0.70;;
4061;SDS011;2046;47.064;15.456;2023-04-24T10:24:09;1.10;;;1.00;;
4061;SDS011;2046;47.064;15.456;2023-04-24T10:26:36;0.70;;;0.65;;
4061;SDS011;2046;47.064;15.456;2023-04-24T10:29:03;0.80;;;0.73;;
4061;SDS011;2046;47.064;15.456;2023-04-24T10:31:31;1.35;;;0.77;;
4061;SDS011;2046;47.064;15.456;2023-04-24T10:33:58;1.92;;;0.80;;
4061;SDS011;2046;47.064;15.456;2023-04-24T10:36:26;2.15;;;0.85;;
4061;SDS011;2046;47.064;15.456;2023-04-24T10:38:54;1.20;;;0.82;;
4061;SDS011;2046;47.064;15.456;2023-04-24T10:41:22;2.05;;;0.77;;
4061;SDS011;2046;47.064;15.456;2023-04-24T10:44:07;1.05;;;0.75;;
4061;SDS011;2046;47.064;15.456;2023-04-24T10:46:35;1.42;;;0.90;;
4061;SDS011;2046;47.064;15.456;2023-04-24T10:49:05;1.35;;;1.10;;
4061;SDS011;2046;47.064;15.456;2023-04-24T10:51:45;1.73;;;1.08;;
4061;SDS011;2046;47.064;15.456;2023-04-24T10:54:24;2.83;;;1.35;;
4061;SDS011;2046;47.064;15.456;2023-04-24T10:56:51;1.63;;;0.95;;
4061;SDS011;2046;47.064;15.456;2023-04-24T10:59:24;1.27;;;0.82;;
4061;SDS011;2046;47.064;15.456;2023-04-24T11:01:54;1.45;;;1.00;;
4061;SDS011;2046;47.064;15.456;2023-04-24T11:04:31;1.10;;;0.70;;
4061;SDS011;2046;47.064;15.456;2023-04-24T11:06:58;1.15;;;0.70;;
4061;SDS011;2046;47.064;15.456;2023-04-24T11:09:28;1.23;;;1.10;;
4061;SDS011;2046;47.064;15.456;2023-04-24T11:12:02;6.53;;;1.08;;
4061;SDS011;2046;47.064;15.456;2023-04-24T11:14:29;3.63;;;1.20;;
4061;SDS011;2046;47.064;15.456;2023-04-24T11:16:56;1.27;;;0.70;;
4061;SDS011;2046;47.064;15.456;2023-04-24T11:19:23;2.42;;;1.08;;
4061;SDS011;2046;47.064;15.456;2023-04-24T14:43:51;7.22;;;2.00;;
4061;SDS011;2046;47.064;15.456;2023-04-24T14:46:18;2.28;;;1.80;;
4061;SDS011;2046;47.064;15.456;2023-04-24T14:48:44;6.15;;;2.50;;
4061;SDS011;2046;47.064;15.456;2023-04-24T14:51:11;6.38;;;3.13;;
4061;SDS011;2046;47.064;15.456;2023-04-24T14:53:38;13.50;;;2.95;;
4061;SDS011;2046;47.064;15.456;2023-04-24T14:56:05;7.60;;;3.55;;
4061;SDS011;2046;47.064;15.456;2023-04-24T14:58:31;9.35;;;2.65;;
4061;SDS011;2046;47.064;15.456;2023-04-24T15:00:58;26.35;;;9.30;;
4061;SDS011;2046;47.064;15.456;2023-04-24T15:03:24;9.15;;;2.85;;
4061;SDS011;2046;47.064;15.456;2023-04-24T15:05:53;8.85;;;1.77;;
4061;SDS011;2046;47.064;15.456;2023-04-24T15:08:20;11.05;;;1.65;;
4061;SDS011;2046;47.064;15.456;2023-04-24T15:10:46;11.88;;;1.50;;
4061;SDS011;2046;47.064;15.456;2023-04-24T15:13:13;4.57;;;1.33;;
4061;SDS011;2046;47.064;15.456;2023-04-24T15:15:40;11.57;;;1.80;;
4061;SDS011;2046;47.064;15.456;2023-04-24T15:18:07;4.88;;;1.67;;
4061;SDS011;2046;47.064;15.456;2023-04-24T15:20:34;7.22;;;1.83;;
4061;SDS011;2046;47.064;15.456;2023-04-24T15:23:04;8.82;;;1.48;;
4061;SDS011;2046;47.064;15.456;2023-04-24T15:25:31;5.38;;;1.63;;
4061;SDS011;2046;47.064;15.456;2023-04-24T15:27:57;6.07;;;1.80;;
4061;SDS011;2046;47.064;15.456;2023-04-24T15:30:25;5.30;;;1.60;;
4061;SDS011;2046;47.064;15.456;2023-04-24T15:32:51;3.03;;;1.50;;
4061;SDS011;2046;47.064;15.456;2023-04-24T15:35:18;4.88;;;2.17;;
4061;SDS011;2046;47.064;15.456;2023-04-24T15:37:45;5.28;;;2.67;;
4061;SDS011;2046;47.064;15.456;2023-04-24T15:40:14;4.63;;;1.63;;
4061;SDS011;2046;47.064;15.456;2023-04-24T15:42:42;4.60;;;1.40;;
4061;SDS011;2046;47.064;15.456;2023-04-24T15:45:09;4.28;;;1.48;;
4061;SDS011;2046;47.064;15.456;2023-04-24T15:47:36;3.75;;;1.23;;
4061;SDS011;2046;47.064;15.456;2023-04-24T15:50:03;6.07;;;1.73;;
4061;SDS011;2046;47.064;15.456;2023-04-24T15:52:30;3.33;;;1.90;;
4061;SDS011;2046;47.064;15.456;2023-04-24T15:54:56;3.90;;;1.25;;
4061;SDS011;2046;47.064;15.456;2023-04-24T15:57:23;7.43;;;1.48;;
4061;SDS011;2046;47.064;15.456;2023-04-24T15:59:49;6.13;;;1.30;;
4061;SDS011;2046;47.064;15.456;2023-04-24T16:02:16;1.70;;;1.08;;
4061;SDS011;2046;47.064;15.456;2023-04-24T16:04:46;6.68;;;1.55;;
4061;SDS011;2046;47.064;15.456;2023-04-24T16:07:13;3.78;;;1.40;;
4061;SDS011;2046;47.064;15.456;2023-04-24T16:09:41;2.20;;;1.08;;
4061;SDS011;2046;47.064;15.456;2023-04-24T16:12:07;3.90;;;1.15;;
4061;SDS011;2046;47.064;15.456;2023-04-24T16:14:36;4.10;;;1.05;;
4061;SDS011;2046;47.064;15.456;2023-04-24T16:17:02;4.60;;;1.15;;
4061;SDS011;2046;47.064;15.456;2023-04-24T16:19:29;2.05;;;1.33;;
4061;SDS011;2046;47.064;15.456;2023-04-24T16:21:56;1.23;;;1.10;;
4061;SDS011;2046;47.064;15.456;2023-04-24T16:24:23;4.45;;;1.00;;
4061;SDS011;2046;47.064;15.456;2023-04-24T16:26:50;5.30;;;1.48;;
4061;SDS011;2046;47.064;15.456;2023-04-24T16:29:17;3.38;;;1.10;;
4061;SDS011;2046;47.064;15.456;2023-04-24T16:31:44;4.72;;;1.30;;
4061;SDS011;2046;47.064;15.456;2023-04-24T16:34:11;3.55;;;1.38;;
4061;SDS011;2046;47.064;15.456;2023-04-24T16:36:37;5.85;;;1.63;;
4061;SDS011;2046;47.064;15.456;2023-04-24T16:39:04;2.83;;;1.60;;
4061;SDS011;2046;47.064;15.456;2023-04-24T16:41:31;3.78;;;1.40;;
4061;SDS011;2046;47.064;15.456;2023-04-24T16:43:57;2.40;;;1.08;;
4061;SDS011;2046;47.064;15.456;2023-04-24T16:46:24;4.20;;;1.30;;
4061;SDS011;2046;47.064;15.456;2023-04-24T16:48:51;1.75;;;1.15;;
4061;SDS011;2046;47.064;15.456;2023-04-24T16:51:18;7.53;;;1.42;;
4061;SDS011;2046;47.064;15.456;2023-04-24T16:53:44;0.98;;;0.80;;
4061;SDS011;2046;47.064;15.456;2023-04-24T16:56:11;1.15;;;1.10;;
4061;SDS011;2046;47.064;15.456;2023-04-24T16:58:39;4.03;;;1.23;;
4061;SDS011;2046;47.064;15.456;2023-04-24T17:01:05;1.65;;;1.10;;
4061;SDS011;2046;47.064;15.456;2023-04-24T17:03:32;1.67;;;1.25;;
4061;SDS011;2046;47.064;15.456;2023-04-24T17:05:59;1.52;;;0.93;;
4061;SDS011;2046;47.064;15.456;2023-04-24T17:08:26;3.90;;;1.00;;
4061;SDS011;2046;47.064;15.456;2023-04-24T17:10:52;3.95;;;1.10;;
4061;SDS011;2046;47.064;15.456;2023-04-24T17:13:19;4.78;;;1.25;;
4061;SDS011;2046;47.064;15.456;2023-04-24T17:15:45;7.00;;;1.55;;
4061;SDS011;2046;47.064;15.456;2023-04-24T17:18:12;1.15;;;1.05;;
4061;SDS011;2046;47.064;15.456;2023-04-24T17:20:38;2.42;;;1.20;;
4061;SDS011;2046;47.064;15.456;2023-04-24T17:23:05;5.78;;;1.30;;
4061;SDS011;2046;47.064;15.456;2023-04-24T17:25:32;1.40;;;1.08;;
4061;SDS011;2046;47.064;15.456;2023-04-24T17:27:59;2.97;;;1.25;;
4061;SDS011;2046;47.064;15.456;2023-04-24T17:30:25;3.47;;;1.20;;
4061;SDS011;2046;47.064;15.456;2023-04-24T17:32:52;1.55;;;0.80;;
4061;SDS011;2046;47.064;15.456;2023-04-24T17:35:18;2.47;;;1.05;;
4061;SDS011;2046;47.064;15.456;2023-04-24T17:37:47;2.83;;;0.93;;
4061;SDS011;2046;47.064;15.456;2023-04-24T17:40:14;1.75;;;0.90;;
4061;SDS011;2046;47.064;15.456;2023-04-24T17:42:41;1.23;;;1.00;;
4061;SDS011;2046;47.064;15.456;2023-04-24T17:45:07;2.25;;;0.93;;
4061;SDS011;2046;47.064;15.456;2023-04-24T17:47:34;1.48;;;1.00;;
4061;SDS011;2046;47.064;15.456;2023-04-24T17:50:02;3.65;;;1.10;;
4061;SDS011;2046;47.064;15.456;2023-04-24T17:52:28;2.55;;;1.35;;
4061;SDS011;2046;47.064;15.456;2023-04-24T17:54:56;1.20;;;1.10;;
4061;SDS011;2046;47.064;15.456;2023-04-24T17:57:23;4.32;;;1.70;;
4061;SDS011;2046;47.064;15.456;2023-04-24T17:59:50;1.50;;;1.23;;
4061;SDS011;2046;47.064;15.456;2023-04-24T18:02:17;1.33;;;1.23;;
4061;SDS011;2046;47.064;15.456;2023-04-24T18:04:43;0.70;;;0.70;;
4061;SDS011;2046;47.064;15.456;2023-04-24T18:07:10;1.10;;;0.82;;
4061;SDS011;2046;47.064;15.456;2023-04-24T18:09:37;1.02;;;0.90;;
4061;SDS011;2046;47.064;15.456;2023-04-24T18:12:04;4.68;;;1.20;;
4061;SDS011;2046;47.064;15.456;2023-04-24T18:14:30;2.05;;;1.00;;
4061;SDS011;2046;47.064;15.456;2023-04-24T18:16:57;4.85;;;1.02;;
4061;SDS011;2046;47.064;15.456;2023-04-24T18:19:24;7.07;;;1.60;;
4061;SDS011;2046;47.064;15.456;2023-04-24T18:21:50;5.18;;;1.45;;